sensor_id;sensor_type;location;lat;lon;timestamp;pressure;altitude;pressure_sealevel;temperature;humidity
59513;BME280;45330;51.634;5.562;2023-05-10T00:01:39;100761.41;;;11.75;100.00
59513;BME280;45330;51.634;5.562;2023-05-10T00:04:05;100777.78;;;11.86;100.00
59513;BME280;45330;51.634;5.562;2023-05-10T00:06:31;100773.56;;;11.76;100.00
59513;BME280;45330;51.634;5.562;2023-05-10T00:08:56;100781.34;;;11.79;100.00
59513;BME280;45330;51.634;5.562;2023-05-10T00:11:22;100772.66;;;11.77;100.00
59513;BME280;45330;51.634;5.562;2023-05-10T00:13:47;100771.84;;;11.75;100.00
59513;BME280;45330;51.634;5.562;2023-05-10T00:16:13;100773.59;;;11.71;100.00
59513;BME280;45330;51.634;5.562;2023-05-10T00:18:39;100759.00;;;11.58;100.00
59513;BME280;45330;51.634;5.562;2023-05-10T00:21:05;100751.25;;;11.52;100.00
59513;BME280;45330;51.634;5.562;2023-05-10T00:23:30;100765.88;;;11.65;100.00
59513;BME280;45330;51.634;5.562;2023-05-10T00:25:56;100774.59;;;11.62;100.00
59513;BME280;45330;51.634;5.562;2023-05-10T00:28:21;100778.06;;;11.64;100.00
59513;BME280;45330;51.634;5.562;2023-05-10T00:30:47;100771.94;;;11.64;100.00
59513;BME280;45330;51.634;5.562;2023-05-10T00:33:12;100752.91;;;11.57;100.00
59513;BME280;45330;51.634;5.562;2023-05-10T00:35:38;100769.31;;;11.65;100.00
59513;BME280;45330;51.634;5.562;2023-05-10T00:38:03;100753.81;;;11.53;100.00
59513;BME280;45330;51.634;5.562;2023-05-10T00:40:29;100762.47;;;11.58;100.00
59513;BME280;45330;51.634;5.562;2023-05-10T00:42:56;100765.06;;;11.58;100.00
59513;BME280;45330;51.634;5.562;2023-05-10T00:45:21;100755.66;;;11.43;100.00
59513;BME280;45330;51.634;5.562;2023-05-10T00:47:47;100751.38;;;11.41;100.00
59513;BME280;45330;51.634;5.562;2023-05-10T00:50:13;100751.38;;;11.38;100.00
59513;BME280;45330;51.634;5.562;2023-05-10T00:52:39;100771.25;;;11.49;100.00
59513;BME280;45330;51.634;5.562;2023-05-10T00:55:06;100748.81;;;11.35;100.00
59513;BME280;45330;51.634;5.562;2023-05-10T00:57:31;100754.00;;;11.36;100.00
59513;BME280;45330;51.634;5.562;2023-05-10T00:59:57;100774.72;;;11.48;100.00
59513;BME280;45330;51.634;5.562;2023-05-10T01:02:23;100766.09;;;11.45;100.00
59513;BME280;45330;51.634;5.562;2023-05-10T01:04:49;100739.34;;;11.29;100.00
59513;BME280;45330;51.634;5.562;2023-05-10T01:07:15;100772.13;;;11.48;100.00
59513;BME280;45330;51.634;5.562;2023-05-10T01:09:40;100750.56;;;11.34;100.00
59513;BME280;45330;51.634;5.562;2023-05-10T01:12:06;100750.63;;;11.31;100.00
59513;BME280;45330;51.634;5.562;2023-05-10T01:14:32;100768.75;;;11.40;100.00
59513;BME280;45330;51.634;5.562;2023-05-10T01:16:59;100773.06;;;11.43;100.00
59513;BME280;45330;51.634;5.562;2023-05-10T01:19:26;100761.03;;;11.31;100.00
59513;BME280;45330;51.634;5.562;2023-05-10T01:30:05;100778.31;;;11.40;100.00
59513;BME280;45330;51.634;5.562;2023-05-10T01:32:39;100773.16;;;11.35;100.00
59513;BME280;45330;51.634;5.562;2023-05-10T01:35:14;100771.41;;;11.34;100.00
59513;BME280;45330;51.634;5.562;2023-05-10T01:37:42;100771.41;;;11.34;100.00
59513;BME280;45330;51.634;5.562;2023-05-10T01:43:01;100767.88;;;11.41;100.00
59513;BME280;45330;51.634;5.562;2023-05-10T01:45:37;100770.38;;;11.50;100.00
59513;BME280;45330;51.634;5.562;2023-05-10T01:48:07;100766.94;;;11.47;100.00
59513;BME280;45330;51.634;5.562;2023-05-10T01:50:36;100759.13;;;11.45;100.00
59513;BME280;45330;51.634;5.562;2023-05-10T01:53:03;100784.19;;;11.60;100.00
59513;BME280;45330;51.634;5.562;2023-05-10T01:55:33;100765.19;;;11.50;100.00
59513;BME280;45330;51.634;5.562;2023-05-10T01:58:15;100791.09;;;11.64;100.00
59513;BME280;45330;51.634;5.562;2023-05-10T02:00:43;100768.59;;;11.53;100.00
59513;BME280;45330;51.634;5.562;2023-05-10T02:03:10;100798.03;;;11.64;100.00
59513;BME280;45330;51.634;5.562;2023-05-10T02:05:36;100786.72;;;11.65;100.00
59513;BME280;45330;51.634;5.562;2023-05-10T02:08:06;100788.47;;;11.61;100.00
59513;BME280;45330;51.634;5.562;2023-05-10T02:10:33;100769.47;;;11.55;100.00
59513;BME280;45330;51.634;5.562;2023-05-10T02:12:59;100787.63;;;11.61;100.00
59513;BME280;45330;51.634;5.562;2023-05-10T02:15:26;100777.28;;;11.55;100.00
59513;BME280;45330;51.634;5.562;2023-05-10T02:17:54;100785.03;;;11.61;100.00
59513;BME280;45330;51.634;5.562;2023-05-10T02:20:21;100794.56;;;11.62;100.00
59513;BME280;45330;51.634;5.562;2023-05-10T02:22:49;100801.50;;;11.64;100.00
59513;BME280;45330;51.634;5.562;2023-05-10T02:25:18;100778.13;;;11.57;100.00
59513;BME280;45330;51.634;5.562;2023-05-10T02:27:44;100783.28;;;11.60;100.00
59513;BME280;45330;51.634;5.562;2023-05-10T02:30:12;100785.06;;;11.59;100.00
59513;BME280;45330;51.634;5.562;2023-05-10T02:32:38;100800.56;;;11.72;100.00
59513;BME280;45330;51.634;5.562;2023-05-10T02:35:05;100799.63;;;11.74;100.00
59513;BME280;45330;51.634;5.562;2023-05-10T02:37:31;100784.94;;;11.67;100.00
59513;BME280;45330;51.634;5.562;2023-05-10T02:39:58;100794.44;;;11.73;100.00
59513;BME280;45330;51.634;5.562;2023-05-10T02:42:26;100798.75;;;11.75;100.00
59513;BME280;45330;51.634;5.562;2023-05-10T02:44:56;100781.56;;;11.62;100.00
59513;BME280;45330;51.634;5.562;2023-05-10T02:47:24;100775.44;;;11.64;100.00
59513;BME280;45330;51.634;5.562;2023-05-10T02:49:50;100790.09;;;11.75;100.00
59513;BME280;45330;51.634;5.562;2023-05-10T02:52:19;100789.22;;;11.73;100.00
59513;BME280;45330;51.634;5.562;2023-05-10T02:54:52;100792.66;;;11.76;100.00
59513;BME280;45330;51.634;5.562;2023-05-10T02:57:28;100778.03;;;11.66;100.00
59513;BME280;45330;51.634;5.562;2023-05-10T02:59:55;100776.28;;;11.65;100.00
59513;BME280;45330;51.634;5.562;2023-05-10T03:02:20;100779.72;;;11.67;100.00
59513;BME280;45330;51.634;5.562;2023-05-10T03:04:46;100796.16;;;11.75;100.00
59513;BME280;45330;51.634;5.562;2023-05-10T03:07:12;100798.72;;;11.78;100.00
59513;BME280;45330;51.634;5.562;2023-05-10T03:09:38;100797.84;;;11.79;100.00
59513;BME280;45330;51.634;5.562;2023-05-10T03:12:15;100776.25;;;11.68;100.00
59513;BME280;45330;51.634;5.562;2023-05-10T03:17:26;100802.13;;;11.83;100.00
59513;BME280;45330;51.634;5.562;2023-05-10T03:19:56;100803.00;;;11.82;100.00
59513;BME280;45330;51.634;5.562;2023-05-10T03:22:36;100787.47;;;11.75;100.00
59513;BME280;45330;51.634;5.562;2023-05-10T03:25:05;100805.63;;;11.81;100.00
59513;BME280;45330;51.634;5.562;2023-05-10T03:27:32;100809.09;;;11.83;100.00
59513;BME280;45330;51.634;5.562;2023-05-10T03:29:57;100793.59;;;11.72;100.00
59513;BME280;45330;51.634;5.562;2023-05-10T03:32:23;100813.41;;;11.87;100.00
59513;BME280;45330;51.634;5.562;2023-05-10T03:34:48;100799.63;;;11.76;100.00
59513;BME280;45330;51.634;5.562;2023-05-10T03:37:14;100783.19;;;11.69;100.00
59513;BME280;45330;51.634;5.562;2023-05-10T03:39:39;100817.75;;;11.87;100.00
59513;BME280;45330;51.634;5.562;2023-05-10T03:42:04;100795.31;;;11.73;100.00
59513;BME280;45330;51.634;5.562;2023-05-10T03:44:30;100815.13;;;11.87;100.00
59513;BME280;45330;51.634;5.562;2023-05-10T03:46:56;100822.09;;;11.86;100.00
59513;BME280;45330;51.634;5.562;2023-05-10T03:49:22;100821.25;;;11.86;100.00
59513;BME280;45330;51.634;5.562;2023-05-10T03:51:47;100809.16;;;11.77;100.00
59513;BME280;45330;51.634;5.562;2023-05-10T03:54:13;100804.88;;;11.73;100.00
59513;BME280;45330;51.634;5.562;2023-05-10T03:56:38;100807.44;;;11.74;100.00
59513;BME280;45330;51.634;5.562;2023-05-10T03:59:03;100801.41;;;11.72;100.00
59513;BME280;45330;51.634;5.562;2023-05-10T04:01:33;100825.59;;;11.83;100.00
59513;BME280;45330;51.634;5.562;2023-05-10T04:03:58;100835.22;;;11.81;100.00
59513;BME280;45330;51.634;5.562;2023-05-10T04:06:24;100818.81;;;11.72;100.00
59513;BME280;45330;51.634;5.562;2023-05-10T04:08:49;100820.53;;;11.71;100.00
59513;BME280;45330;51.634;5.562;2023-05-10T04:11:15;100816.22;;;11.67;100.00
59513;BME280;45330;51.634;5.562;2023-05-10T04:13:40;100831.72;;;11.79;100.00
59513;BME280;45330;51.634;5.562;2023-05-10T04:16:06;100831.78;;;11.76;100.00
59513;BME280;45330;51.634;5.562;2023-05-10T04:18:31;100835.22;;;11.77;100.00
59513;BME280;45330;51.634;5.562;2023-05-10T04:20:57;100835.28;;;11.74;100.00
59513;BME280;45330;51.634;5.562;2023-05-10T04:23:22;100829.22;;;11.68;100.00
59513;BME280;45330;51.634;5.562;2023-05-10T04:25:48;100832.66;;;11.74;100.00
59513;BME280;45330;51.634;5.562;2023-05-10T04:28:13;100823.28;;;11.60;100.00
59513;BME280;45330;51.634;5.562;2023-05-10T04:30:40;100837.06;;;11.67;100.00
59513;BME280;45330;51.634;5.562;2023-05-10T04:33:05;100835.38;;;11.66;100.00
59513;BME280;45330;51.634;5.562;2023-05-10T04:35:31;100825.88;;;11.60;100.00
59513;BME280;45330;51.634;5.562;2023-05-10T04:37:56;100837.13;;;11.64;100.00
59513;BME280;45330;51.634;5.562;2023-05-10T04:40:22;100819.91;;;11.50;100.00
59513;BME280;45330;51.634;5.562;2023-05-10T04:42:47;100838.00;;;11.63;100.00
59513;BME280;45330;51.634;5.562;2023-05-10T04:45:12;100818.16;;;11.49;100.00
59513;BME280;45330;51.634;5.562;2023-05-10T04:47:39;100844.94;;;11.62;100.00
59513;BME280;45330;51.634;5.562;2023-05-10T04:50:05;100840.66;;;11.58;100.00
59513;BME280;45330;51.634;5.562;2023-05-10T04:52:31;100846.72;;;11.62;100.00
59513;BME280;45330;51.634;5.562;2023-05-10T04:54:57;100850.22;;;11.58;100.00
59513;BME280;45330;51.634;5.562;2023-05-10T04:57:22;100849.38;;;11.54;100.00
59513;BME280;45330;51.634;5.562;2023-05-10T04:59:47;100859.84;;;11.49;100.00
59513;BME280;45330;51.634;5.562;2023-05-10T05:02:13;100860.66;;;11.53;100.00
59513;BME280;45330;51.634;5.562;2023-05-10T05:04:38;100865.94;;;11.48;100.00
59513;BME280;45330;51.634;5.562;2023-05-10T05:07:04;100867.72;;;11.46;100.00
59513;BME280;45330;51.634;5.562;2023-05-10T05:09:29;100846.94;;;11.36;100.00
59513;BME280;45330;51.634;5.562;2023-05-10T05:11:57;100853.00;;;11.39;100.00
59513;BME280;45330;51.634;5.562;2023-05-10T05:14:22;100864.25;;;11.43;100.00
59513;BME280;45330;51.634;5.562;2023-05-10T05:16:50;100859.13;;;11.37;100.00
59513;BME280;45330;51.634;5.562;2023-05-10T05:19:16;100876.38;;;11.47;100.00
59513;BME280;45330;51.634;5.562;2023-05-10T05:21:41;100866.91;;;11.38;100.00
59513;BME280;45330;51.634;5.562;2023-05-10T05:24:06;100870.34;;;11.42;100.00
59513;BME280;45330;51.634;5.562;2023-05-10T05:26:32;100887.66;;;11.47;100.00
59513;BME280;45330;51.634;5.562;2023-05-10T05:28:58;100882.44;;;11.50;100.00
59513;BME280;45330;51.634;5.562;2023-05-10T05:31:23;100882.38;;;11.57;100.00
59513;BME280;45330;51.634;5.562;2023-05-10T05:33:49;100871.03;;;11.61;100.00
59513;BME280;45330;51.634;5.562;2023-05-10T05:36:14;100870.03;;;11.73;100.00
59513;BME280;45330;51.634;5.562;2023-05-10T05:38:39;100867.31;;;11.85;100.00
59513;BME280;45330;51.634;5.562;2023-05-10T05:41:05;100854.19;;;11.96;100.00
59513;BME280;45330;51.634;5.562;2023-05-10T05:43:30;100873.75;;;12.31;100.00
59513;BME280;45330;51.634;5.562;2023-05-10T05:45:56;100871.50;;;12.67;100.00
59513;BME280;45330;51.634;5.562;2023-05-10T05:48:23;100873.16;;;12.76;100.00
59513;BME280;45330;51.634;5.562;2023-05-10T05:50:48;100866.03;;;12.87;100.00
59513;BME280;45330;51.634;5.562;2023-05-10T05:53:14;100858.97;;;12.91;100.00
59513;BME280;45330;51.634;5.562;2023-05-10T05:55:39;100863.97;;;13.06;100.00
59513;BME280;45330;51.634;5.562;2023-05-10T05:58:05;100854.41;;;13.07;100.00
59513;BME280;45330;51.634;5.562;2023-05-10T06:00:30;100869.81;;;13.20;100.00
59513;BME280;45330;51.634;5.562;2023-05-10T06:02:56;100877.63;;;13.24;100.00
59513;BME280;45330;51.634;5.562;2023-05-10T06:05:22;100858.78;;;13.03;100.00
59513;BME280;45330;51.634;5.562;2023-05-10T06:07:47;100860.66;;;12.95;100.00
59513;BME280;45330;51.634;5.562;2023-05-10T06:10:13;100871.03;;;12.99;100.00
59513;BME280;45330;51.634;5.562;2023-05-10T06:12:38;100887.41;;;13.09;100.00
59513;BME280;45330;51.634;5.562;2023-05-10T06:15:04;100888.06;;;13.25;100.00
59513;BME280;45330;51.634;5.562;2023-05-10T06:17:30;100892.38;;;13.28;100.00
59513;BME280;45330;51.634;5.562;2023-05-10T06:19:55;100883.78;;;13.19;100.00
59513;BME280;45330;51.634;5.562;2023-05-10T06:22:21;100885.63;;;13.14;100.00
59513;BME280;45330;51.634;5.562;2023-05-10T06:24:49;100887.47;;;13.06;100.00
59513;BME280;45330;51.634;5.562;2023-05-10T06:27:15;100907.56;;;13.04;100.00
59513;BME280;45330;51.634;5.562;2023-05-10T06:29:40;100891.19;;;12.90;100.00
59513;BME280;45330;51.634;5.562;2023-05-10T06:32:05;100882.66;;;12.81;100.00
59513;BME280;45330;51.634;5.562;2023-05-10T06:34:31;100902.59;;;12.84;100.00
59513;BME280;45330;51.634;5.562;2023-05-10T06:36:56;100879.44;;;12.61;100.00
59513;BME280;45330;51.634;5.562;2023-05-10T06:39:22;100895.94;;;12.64;100.00
59513;BME280;45330;51.634;5.562;2023-05-10T06:41:47;100914.06;;;12.75;100.00
59513;BME280;45330;51.634;5.562;2023-05-10T06:44:12;100915.78;;;12.76;100.00
59513;BME280;45330;51.634;5.562;2023-05-10T06:46:38;100912.28;;;12.77;100.00
59513;BME280;45330;51.634;5.562;2023-05-10T06:49:03;100913.88;;;12.87;100.00
59513;BME280;45330;51.634;5.562;2023-05-10T06:51:29;100916.34;;;12.98;100.00
59513;BME280;45330;51.634;5.562;2023-05-10T06:53:54;100907.66;;;12.96;100.00
59513;BME280;45330;51.634;5.562;2023-05-10T06:56:20;100920.50;;;13.10;100.00
59513;BME280;45330;51.634;5.562;2023-05-10T06:58:49;100908.38;;;13.06;100.00
59513;BME280;45330;51.634;5.562;2023-05-10T07:01:14;100911.75;;;13.14;100.00
59513;BME280;45330;51.634;5.562;2023-05-10T07:03:40;100904.84;;;13.09;100.00
59513;BME280;45330;51.634;5.562;2023-05-10T07:06:05;100933.41;;;13.21;100.00
59513;BME280;45330;51.634;5.562;2023-05-10T07:08:33;100922.13;;;13.17;100.00
59513;BME280;45330;51.634;5.562;2023-05-10T07:11:00;100933.91;;;13.46;100.00
59513;BME280;45330;51.634;5.562;2023-05-10T07:13:25;100933.66;;;13.62;100.00
59513;BME280;45330;51.634;5.562;2023-05-10T07:15:51;100942.22;;;13.71;100.00
59513;BME280;45330;51.634;5.562;2023-05-10T07:18:16;100925.03;;;13.57;100.00
59513;BME280;45330;51.634;5.562;2023-05-10T07:20:41;100934.44;;;13.65;100.00
59513;BME280;45330;51.634;5.562;2023-05-10T07:23:07;100908.75;;;13.41;100.00
59513;BME280;45330;51.634;5.562;2023-05-10T07:25:32;100951.19;;;13.55;100.00
59513;BME280;45330;51.634;5.562;2023-05-10T07:27:58;100953.91;;;13.50;100.00
59513;BME280;45330;51.634;5.562;2023-05-10T07:30:23;100949.63;;;13.45;100.00
59513;BME280;45330;51.634;5.562;2023-05-10T07:32:49;100961.16;;;13.30;100.00
59513;BME280;45330;51.634;5.562;2023-05-10T07:35:14;100962.22;;;13.18;100.00
59513;BME280;45330;51.634;5.562;2023-05-10T07:37:39;100932.91;;;12.96;100.00
59513;BME280;45330;51.634;5.562;2023-05-10T07:40:05;100940.81;;;12.90;100.00
59513;BME280;45330;51.634;5.562;2023-05-10T07:42:31;100952.09;;;12.93;100.00
59513;BME280;45330;51.634;5.562;2023-05-10T07:44:56;100946.03;;;12.93;100.00
59513;BME280;45330;51.634;5.562;2023-05-10T07:47:22;100955.53;;;12.98;100.00
59513;BME280;45330;51.634;5.562;2023-05-10T07:49:48;100950.41;;;12.91;100.00
59513;BME280;45330;51.634;5.562;2023-05-10T07:52:13;100952.09;;;12.95;100.00
59513;BME280;45330;51.634;5.562;2023-05-10T07:54:39;100971.97;;;13.07;100.00
59513;BME280;45330;51.634;5.562;2023-05-10T07:57:04;100965.78;;;13.12;100.00
59513;BME280;45330;51.634;5.562;2023-05-10T07:59:30;100971.00;;;13.12;100.00
59513;BME280;45330;51.634;5.562;2023-05-10T08:01:55;100979.63;;;13.17;100.00
59513;BME280;45330;51.634;5.562;2023-05-10T08:04:21;100974.41;;;13.17;100.00
59513;BME280;45330;51.634;5.562;2023-05-10T08:06:47;100979.34;;;13.34;100.00
59513;BME280;45330;51.634;5.562;2023-05-10T08:09:13;100993.16;;;13.47;100.00
59513;BME280;45330;51.634;5.562;2023-05-10T08:11:38;100977.47;;;13.47;100.00
59513;BME280;45330;51.634;5.562;2023-05-10T08:14:04;100973.19;;;13.42;100.00
59513;BME280;45330;51.634;5.562;2023-05-10T08:16:29;100997.44;;;13.51;100.00
59513;BME280;45330;51.634;5.562;2023-05-10T08:18:54;100993.06;;;13.53;100.00
59513;BME280;45330;51.634;5.562;2023-05-10T08:21:20;100982.69;;;13.49;100.00
59513;BME280;45330;51.634;5.562;2023-05-10T08:23:45;100978.34;;;13.46;100.00
59513;BME280;45330;51.634;5.562;2023-05-10T08:26:11;100991.44;;;13.46;100.00
59513;BME280;45330;51.634;5.562;2023-05-10T08:28:36;100994.81;;;13.51;100.00
59513;BME280;45330;51.634;5.562;2023-05-10T08:31:02;101004.19;;;13.66;100.00
59513;BME280;45330;51.634;5.562;2023-05-10T08:33:27;101002.50;;;13.62;100.00
59513;BME280;45330;51.634;5.562;2023-05-10T08:35:52;100997.19;;;13.68;100.00
59513;BME280;45330;51.634;5.562;2023-05-10T08:38:18;101007.03;;;14.04;100.00
59513;BME280;45330;51.634;5.562;2023-05-10T08:40:44;101012.53;;;14.37;100.00
59513;BME280;45330;51.634;5.562;2023-05-10T08:43:11;101013.75;;;14.66;100.00
59513;BME280;45330;51.634;5.562;2023-05-10T08:45:46;101019.50;;;14.83;100.00
59513;BME280;45330;51.634;5.562;2023-05-10T08:48:14;101015.63;;;15.01;100.00
59513;BME280;45330;51.634;5.562;2023-05-10T08:50:41;101014.63;;;15.07;100.00
59513;BME280;45330;51.634;5.562;2023-05-10T08:53:12;101016.78;;;14.86;100.00
59513;BME280;45330;51.634;5.562;2023-05-10T08:55:38;101019.44;;;14.85;100.00
59513;BME280;45330;51.634;5.562;2023-05-10T08:58:06;101015.28;;;14.76;100.00
59513;BME280;45330;51.634;5.562;2023-05-10T09:00:32;101012.75;;;14.71;100.00
59513;BME280;45330;51.634;5.562;2023-05-10T09:02:58;101023.47;;;14.57;100.00
59513;BME280;45330;51.634;5.562;2023-05-10T09:05:24;101027.19;;;14.46;100.00
59513;BME280;45330;51.634;5.562;2023-05-10T09:07:49;101023.13;;;14.31;100.00
59513;BME280;45330;51.634;5.562;2023-05-10T09:10:15;101019.84;;;14.19;100.00
59513;BME280;45330;51.634;5.562;2023-05-10T09:12:41;101026.97;;;14.11;100.00
59513;BME280;45330;51.634;5.562;2023-05-10T09:15:07;101020.19;;;14.01;100.00
59513;BME280;45330;51.634;5.562;2023-05-10T09:17:34;101037.53;;;14.05;100.00
59513;BME280;45330;51.634;5.562;2023-05-10T09:20:01;101029.78;;;13.99;100.00
59513;BME280;45330;51.634;5.562;2023-05-10T09:22:27;101056.56;;;14.13;100.00
59513;BME280;45330;51.634;5.562;2023-05-10T09:25:15;101050.38;;;14.20;100.00
59513;BME280;45330;51.634;5.562;2023-05-10T09:27:44;101045.81;;;14.29;100.00
59513;BME280;45330;51.634;5.562;2023-05-10T09:30:10;101042.31;;;14.30;100.00
59513;BME280;45330;51.634;5.562;2023-05-10T09:32:42;101040.72;;;14.22;100.00
59513;BME280;45330;51.634;5.562;2023-05-10T09:35:12;101062.19;;;14.41;100.00
59513;BME280;45330;51.634;5.562;2023-05-10T09:37:40;101063.28;;;14.28;100.00
59513;BME280;45330;51.634;5.562;2023-05-10T09:40:12;101061.81;;;14.13;100.00
59513;BME280;45330;51.634;5.562;2023-05-10T09:42:38;101063.78;;;14.00;100.00
59513;BME280;45330;51.634;5.562;2023-05-10T09:45:04;101065.53;;;14.00;100.00
59513;BME280;45330;51.634;5.562;2023-05-10T09:47:34;101075.06;;;14.04;100.00
59513;BME280;45330;51.634;5.562;2023-05-10T09:50:00;101073.88;;;14.22;100.00
59513;BME280;45330;51.634;5.562;2023-05-10T09:52:30;101069.72;;;14.58;100.00
59513;BME280;45330;51.634;5.562;2023-05-10T09:54:56;101056.84;;;14.93;100.00
59513;BME280;45330;51.634;5.562;2023-05-10T09:57:22;101073.00;;;15.54;100.00
59513;BME280;45330;51.634;5.562;2023-05-10T09:59:48;101068.69;;;15.89;100.00
59513;BME280;45330;51.634;5.562;2023-05-10T10:02:14;101066.84;;;16.27;100.00
59513;BME280;45330;51.634;5.562;2023-05-10T10:04:40;101079.50;;;16.46;100.00
59513;BME280;45330;51.634;5.562;2023-05-10T10:07:06;101058.19;;;16.57;100.00
59513;BME280;45330;51.634;5.562;2023-05-10T10:09:32;101060.25;;;16.45;100.00
59513;BME280;45330;51.634;5.562;2023-05-10T10:12:00;101074.69;;;16.62;100.00
59513;BME280;45330;51.634;5.562;2023-05-10T10:14:25;101074.19;;;16.79;100.00
59513;BME280;45330;51.634;5.562;2023-05-10T10:16:51;101059.59;;;16.69;100.00
59513;BME280;45330;51.634;5.562;2023-05-10T10:19:21;101071.34;;;16.88;100.00
59513;BME280;45330;51.634;5.562;2023-05-10T10:21:48;101072.16;;;16.92;100.00
59513;BME280;45330;51.634;5.562;2023-05-10T10:24:13;101054.22;;;16.73;100.00
59513;BME280;45330;51.634;5.562;2023-05-10T10:26:40;101079.84;;;16.65;100.00
59513;BME280;45330;51.634;5.562;2023-05-10T10:34:10;101077.47;;;15.88;100.00
59513;BME280;45330;51.634;5.562;2023-05-10T10:36:45;101088.66;;;15.97;100.00
59513;BME280;45330;51.634;5.562;2023-05-10T10:39:12;101071.63;;;15.75;100.00
59513;BME280;45330;51.634;5.562;2023-05-10T10:41:49;101085.75;;;15.31;100.00
59513;BME280;45330;51.634;5.562;2023-05-10T10:47:01;101083.72;;;14.57;100.00
59513;BME280;45330;51.634;5.562;2023-05-10T10:49:28;101080.41;;;14.48;100.00
59513;BME280;45330;51.634;5.562;2023-05-10T10:55:07;101067.38;;;14.45;100.00
59513;BME280;45330;51.634;5.562;2023-05-10T11:00:18;101087.13;;;14.64;100.00
59513;BME280;45330;51.634;5.562;2023-05-10T11:02:44;101068.50;;;14.30;100.00
59513;BME280;45330;51.634;5.562;2023-05-10T11:05:45;101091.03;;;14.38;100.00
59513;BME280;45330;51.634;5.562;2023-05-10T11:08:30;101096.56;;;14.21;100.00
59513;BME280;45330;51.634;5.562;2023-05-10T11:15:54;101069.75;;;14.09;100.00
59513;BME280;45330;51.634;5.562;2023-05-10T11:18:23;101089.72;;;14.14;100.00
59513;BME280;45330;51.634;5.562;2023-05-10T11:20:56;101094.03;;;14.17;100.00
59513;BME280;45330;51.634;5.562;2023-05-10T11:23:23;101092.44;;;14.08;100.00
59513;BME280;45330;51.634;5.562;2023-05-10T11:25:49;101067.47;;;13.88;100.00
59513;BME280;45330;51.634;5.562;2023-05-10T11:28:17;101072.72;;;13.87;100.00
59513;BME280;45330;51.634;5.562;2023-05-10T11:30:44;101094.06;;;14.15;100.00
59513;BME280;45330;51.634;5.562;2023-05-10T11:33:15;101078.34;;;14.15;100.00
59513;BME280;45330;51.634;5.562;2023-05-10T11:35:41;101076.25;;;14.34;100.00
59513;BME280;45330;51.634;5.562;2023-05-10T11:38:07;101101.19;;;14.57;100.00
59513;BME280;45330;51.634;5.562;2023-05-10T11:40:34;101076.88;;;14.50;100.00
59513;BME280;45330;51.634;5.562;2023-05-10T11:42:59;101087.81;;;14.74;100.00
59513;BME280;45330;51.634;5.562;2023-05-10T11:45:25;101089.72;;;14.64;100.00
59513;BME280;45330;51.634;5.562;2023-05-10T11:47:51;101083.66;;;14.61;100.00
59513;BME280;45330;51.634;5.562;2023-05-10T11:50:17;101071.34;;;14.67;100.00
59513;BME280;45330;51.634;5.562;2023-05-10T11:52:43;101069.50;;;14.71;100.00
59513;BME280;45330;51.634;5.562;2023-05-10T11:55:08;101065.31;;;14.61;100.00
59513;BME280;45330;51.634;5.562;2023-05-10T11:57:35;101068.22;;;14.45;100.00
59513;BME280;45330;51.634;5.562;2023-05-10T12:00:01;101071.56;;;14.53;100.00
59513;BME280;45330;51.634;5.562;2023-05-10T12:02:29;101091.75;;;14.47;100.00
59513;BME280;45330;51.634;5.562;2023-05-10T12:04:55;101095.16;;;14.52;100.00
59513;BME280;45330;51.634;5.562;2023-05-10T12:07:20;101100.50;;;14.46;100.00
59513;BME280;45330;51.634;5.562;2023-05-10T12:10:11;101109.28;;;14.43;100.00
59513;BME280;45330;51.634;5.562;2023-05-10T12:12:41;101087.31;;;14.00;100.00
59513;BME280;45330;51.634;5.562;2023-05-10T12:15:20;101089.31;;;13.86;100.00
59513;BME280;45330;51.634;5.562;2023-05-10T12:17:47;101109.25;;;13.93;100.00
59513;BME280;45330;51.634;5.562;2023-05-10T12:20:20;101112.47;;;14.09;100.00
59513;BME280;45330;51.634;5.562;2023-05-10T12:22:51;101110.84;;;14.02;100.00
59513;BME280;45330;51.634;5.562;2023-05-10T12:25:21;101097.00;;;13.95;100.00
59513;BME280;45330;51.634;5.562;2023-05-10T12:27:55;101102.84;;;14.11;100.00
59513;BME280;45330;51.634;5.562;2023-05-10T12:30:25;101118.19;;;14.33;100.00
59513;BME280;45330;51.634;5.562;2023-05-10T12:32:52;101111.22;;;14.30;100.00
59513;BME280;45330;51.634;5.562;2023-05-10T12:35:18;101129.28;;;14.47;100.00
59513;BME280;45330;51.634;5.562;2023-05-10T12:37:49;101106.94;;;14.28;100.00
59513;BME280;45330;51.634;5.562;2023-05-10T12:40:15;101121.69;;;14.33;100.00
59513;BME280;45330;51.634;5.562;2023-05-10T12:42:40;101133.13;;;14.28;100.00
59513;BME280;45330;51.634;5.562;2023-05-10T12:45:07;101130.78;;;14.09;100.00
59513;BME280;45330;51.634;5.562;2023-05-10T12:47:33;101144.03;;;14.00;100.00
59513;BME280;45330;51.634;5.562;2023-05-10T12:50:00;101119.00;;;13.82;100.00
59513;BME280;45330;51.634;5.562;2023-05-10T12:52:27;101124.31;;;13.77;100.00
59513;BME280;45330;51.634;5.562;2023-05-10T12:54:53;101126.41;;;13.52;100.00
59513;BME280;45330;51.634;5.562;2023-05-10T12:57:20;101159.34;;;13.65;100.00
59513;BME280;45330;51.634;5.562;2023-05-10T12:59:45;101155.97;;;13.59;100.00
59513;BME280;45330;51.634;5.562;2023-05-10T13:02:11;101156.81;;;13.59;100.00
59513;BME280;45330;51.634;5.562;2023-05-10T13:04:36;101141.28;;;13.47;100.00
59513;BME280;45330;51.634;5.562;2023-05-10T13:07:06;101169.16;;;13.49;100.00
59513;BME280;45330;51.634;5.562;2023-05-10T13:09:31;101131.88;;;13.30;100.00
59513;BME280;45330;51.634;5.562;2023-05-10T13:11:56;101162.13;;;13.54;100.00